Dilling Airport


Codes: HSDL/
Name: Dilling Airport
City: Dilling
Country: Sudan
Elevation: 2206 ft.
Wikipedia:

Photos at Dilling Airport


   Photos courtesy of SpottingLog. You can add your own sightings and photos by signing up for a free trial today.



No photos found.

Weather at Dilling Airport


Time (UTC)DescriptionTempratureWindCloud coverageVisibilityPressureHumidity
25-Jun-2024 15:00Light Rain30°C16 mph, S81%10000m1007hPa49%
25-Jun-2024 18:00Light Rain29°C9 mph, SW80%10000m1007hPa53%
25-Jun-2024 21:00Broken Clouds28°C7 mph, SW72%10000m1008hPa52%
26-Jun-2024 00:00Broken Clouds27°C9 mph, S74%10000m1007hPa51%
26-Jun-2024 03:00Overcast Clouds26°C11 mph, S99%10000m1007hPa58%
26-Jun-2024 06:00Broken Clouds29°C13 mph, S81%10000m1009hPa49%
26-Jun-2024 09:00Scattered Clouds33°C13 mph, SW48%10000m1009hPa39%
26-Jun-2024 12:00Broken Clouds35°C11 mph, SW61%10000m1007hPa32%
26-Jun-2024 15:00Light Rain27°C7 mph, S100%10000m1007hPa57%
26-Jun-2024 18:00Light Rain26°C16 mph, SW99%10000m1009hPa61%
26-Jun-2024 21:00Light Rain28°C7 mph, SW95%10000m1008hPa50%
27-Jun-2024 00:00Light Rain27°C11 mph, S79%10000m1007hPa55%
27-Jun-2024 03:00Overcast Clouds27°C13 mph, S89%10000m1007hPa58%
27-Jun-2024 06:00Overcast Clouds29°C18 mph, S94%10000m1009hPa50%
27-Jun-2024 09:00Broken Clouds33°C16 mph, SW78%10000m1010hPa40%
27-Jun-2024 12:00Broken Clouds35°C13 mph, SW63%10000m1007hPa33%
27-Jun-2024 15:00Light Rain28°C16 mph, SE97%10000m1008hPa60%
27-Jun-2024 18:00Heavy Intensity Rain24°C11 mph, NW98%10000m1011hPa65%
27-Jun-2024 21:00Overcast Clouds27°C2 mph, W100%10000m1011hPa54%
28-Jun-2024 00:00Overcast Clouds26°C9 mph, SW100%10000m1009hPa54%
28-Jun-2024 03:00Overcast Clouds25°C16 mph, S100%10000m1009hPa65%
28-Jun-2024 06:00Overcast Clouds27°C18 mph, S95%10000m1011hPa55%
28-Jun-2024 09:00Broken Clouds32°C18 mph, S78%10000m1011hPa39%
28-Jun-2024 12:00Overcast Clouds34°C16 mph, SW89%10000m1009hPa34%
28-Jun-2024 15:00Overcast Clouds33°C11 mph, SW85%10000m1008hPa35%
28-Jun-2024 18:00Broken Clouds27°C13 mph, SW80%10000m1010hPa58%
28-Jun-2024 21:00Broken Clouds28°C7 mph, SW83%10000m1011hPa53%
29-Jun-2024 00:00Overcast Clouds27°C9 mph, S91%10000m1010hPa52%
29-Jun-2024 03:00Light Rain25°C13 mph, S98%10000m1010hPa60%
29-Jun-2024 06:00Light Rain27°C16 mph, S93%10000m1013hPa58%
29-Jun-2024 09:00Broken Clouds31°C18 mph, SW54%10000m1012hPa44%
29-Jun-2024 12:00Scattered Clouds34°C16 mph, SW41%10000m1009hPa36%
29-Jun-2024 15:00Broken Clouds32°C16 mph, SW72%10000m1008hPa39%
29-Jun-2024 18:00Light Rain30°C7 mph, S84%10000m1010hPa45%
29-Jun-2024 21:00Light Rain27°C7 mph, S99%9047m1011hPa55%
30-Jun-2024 00:00Light Rain27°C7 mph, SW99%10000m1010hPa58%
30-Jun-2024 03:00Overcast Clouds26°C11 mph, S98%10000m1010hPa61%
30-Jun-2024 06:00Overcast Clouds28°C16 mph, SW89%10000m1012hPa54%
30-Jun-2024 09:00Broken Clouds31°C13 mph, SW82%10000m1011hPa44%
30-Jun-2024 12:00Broken Clouds34°C9 mph, SW81%10000m1009hPa35%